Time,TemperatureF,DewpointF,PressureIn,WindDirection,WindDirectionDegrees,WindSpeedMPH,WindSpeedGustMPH,Humidity,HourlyPrecipIn,Conditions,Clouds,dailyrainin,SoftwareType,DateUTC
2013-05-20 00:03:00,58.1,53.9,29.94,West,270,0.0,2.2,86,0.00,,,0.00,pywws,2013-05-19 23:03:00,
2013-05-20 00:13:00,58.3,54.1,29.94,WSW,248,0.0,0.0,86,0.00,,,0.00,pywws,2013-05-19 23:13:00,
2013-05-20 00:23:00,58.3,54.1,29.94,WSW,248,0.0,0.0,86,0.00,,,0.00,pywws,2013-05-19 23:23:00,
2013-05-20 00:33:00,58.3,54.1,29.94,WSW,248,0.0,0.0,86,0.00,,,0.00,pywws,2013-05-19 23:33:00,
2013-05-20 00:43:00,58.3,54.1,29.94,WSW,248,0.0,0.0,86,0.00,,,0.00,pywws,2013-05-19 23:43:00,
2013-05-20 00:53:00,58.3,54.4,29.94,WSW,248,0.0,0.0,87,0.00,,,0.00,pywws,2013-05-19 23:53:00,
2013-05-20 01:03:00,58.3,54.4,29.93,West,270,0.0,0.0,87,0.00,,,0.00,pywws,2013-05-20 00:03:00,
2013-05-20 01:13:00,58.3,54.4,29.94,West,270,0.0,0.0,87,0.00,,,0.00,pywws,2013-05-20 00:13:00,
2013-05-20 01:23:00,58.3,54.4,29.93,West,270,0.0,0.0,87,0.00,,,0.00,pywws,2013-05-20 00:23:00,
2013-05-20 01:33:00,58.3,54.4,29.93,West,270,0.0,0.0,87,0.00,,,0.00,pywws,2013-05-20 00:33:00,
2013-05-20 01:43:00,58.3,54.4,29.93,West,270,0.0,0.0,87,0.00,,,0.00,pywws,2013-05-20 00:43:00,
2013-05-20 01:54:00,58.5,54.6,29.93,West,270,0.0,0.0,87,0.00,,,0.00,pywws,2013-05-20 00:54:00,
2013-05-20 02:03:00,58.5,54.6,29.93,West,270,0.0,0.0,87,0.00,,,0.00,pywws,2013-05-20 01:03:00,
2013-05-20 02:14:00,58.5,54.6,29.93,West,270,0.0,0.0,87,0.00,,,0.00,pywws,2013-05-20 01:14:00,
2013-05-20 02:23:00,58.5,54.6,29.93,WSW,248,0.0,0.0,87,0.00,,,0.00,pywws,2013-05-20 01:23:00,
2013-05-20 02:34:00,58.5,54.9,29.93,WSW,248,0.0,0.0,88,0.00,,,0.00,pywws,2013-05-20 01:34:00,
2013-05-20 02:43:00,58.5,54.9,29.93,WSW,248,0.0,0.0,88,0.00,,,0.00,pywws,2013-05-20 01:43:00,
2013-05-20 02:54:00,58.5,54.9,29.92,WSW,248,0.0,0.0,88,0.00,,,0.00,pywws,2013-05-20 01:54:00,
2013-05-20 03:03:00,58.5,54.9,29.92,East,90,0.0,0.0,88,0.00,,,0.00,pywws,2013-05-20 02:03:00,
2013-05-20 03:14:00,58.5,54.9,29.92,East,90,0.0,0.0,88,0.00,,,0.00,pywws,2013-05-20 02:14:00,
2013-05-20 03:23:00,58.3,54.7,29.93,South,180,0.0,0.0,88,0.00,,,0.00,pywws,2013-05-20 02:23:00,
2013-05-20 03:34:00,58.3,54.7,29.92,West,270,0.0,0.0,88,0.00,,,0.00,pywws,2013-05-20 02:34:00,
2013-05-20 03:43:00,58.3,54.7,29.93,West,270,0.0,0.0,88,0.00,,,0.00,pywws,2013-05-20 02:43:00,
2013-05-20 03:53:00,58.5,54.9,29.92,West,270,0.0,0.0,88,0.00,,,0.00,pywws,2013-05-20 02:53:00,
2013-05-20 04:03:00,58.5,54.9,29.93,WSW,248,0.0,0.0,88,0.00,,,0.00,pywws,2013-05-20 03:03:00,
2013-05-20 04:13:00,58.3,54.7,29.92,SSW,202,0.7,1.6,88,0.00,,,0.00,pywws,2013-05-20 03:13:00,
2013-05-20 04:23:00,58.5,54.9,29.92,East,90,0.0,1.6,88,0.00,,,0.00,pywws,2013-05-20 03:23:00,
2013-05-20 04:33:00,58.1,54.6,29.91,East,90,0.0,0.7,88,0.00,,,0.00,pywws,2013-05-20 03:33:00,
2013-05-20 04:43:00,57.6,54.0,29.91,East,90,0.0,1.6,88,0.00,,,0.00,pywws,2013-05-20 03:43:00,
2013-05-20 04:53:00,57.0,53.5,29.91,NNE,22,0.7,2.2,88,0.00,,,0.00,pywws,2013-05-20 03:53:00,
2013-05-20 05:03:00,56.7,53.1,29.91,NE,45,0.7,2.2,88,0.00,,,0.00,pywws,2013-05-20 04:03:00,
2013-05-20 05:14:00,56.5,53.0,29.92,NE,45,0.7,2.2,88,0.00,,,0.00,pywws,2013-05-20 04:14:00,
2013-05-20 05:23:00,56.3,52.8,29.91,NE,45,0.0,0.0,88,0.00,,,0.00,pywws,2013-05-20 04:23:00,
2013-05-20 05:33:00,56.3,52.8,29.92,NE,45,0.0,0.0,88,0.00,,,0.00,pywws,2013-05-20 04:33:00,
2013-05-20 05:43:00,56.3,52.8,29.92,NE,45,0.0,0.0,88,0.00,,,0.00,pywws,2013-05-20 04:43:00,
2013-05-20 05:53:00,56.3,52.8,29.92,East,90,0.0,0.0,88,0.00,,,0.00,pywws,2013-05-20 04:53:00,
2013-05-20 06:03:00,56.3,52.8,29.92,East,90,0.0,0.0,88,0.00,,,0.00,pywws,2013-05-20 05:03:00,
2013-05-20 06:13:00,56.3,52.8,29.92,SE,135,0.0,0.0,88,0.00,,,0.00,pywws,2013-05-20 05:13:00,
2013-05-20 06:23:00,56.5,53.0,29.92,East,90,0.0,0.0,88,0.00,,,0.00,pywws,2013-05-20 05:23:00,
2013-05-20 06:33:00,56.7,53.1,29.91,East,90,0.0,0.0,88,0.00,,,0.00,pywws,2013-05-20 05:33:00,
2013-05-20 06:43:00,56.8,53.3,29.91,East,90,0.0,0.0,88,0.00,,,0.00,pywws,2013-05-20 05:43:00,
2013-05-20 06:53:00,57.2,54.0,29.91,East,90,0.0,0.0,89,0.00,,,0.00,pywws,2013-05-20 05:53:00,
2013-05-20 07:03:00,57.6,54.3,29.91,WSW,248,0.0,0.0,89,0.00,,,0.00,pywws,2013-05-20 06:03:00,
2013-05-20 07:14:00,57.6,54.3,29.91,WSW,248,0.0,0.0,89,0.00,,,0.00,pywws,2013-05-20 06:14:00,
2013-05-20 07:23:00,57.9,54.7,29.91,South,180,0.0,0.0,89,0.00,,,0.00,pywws,2013-05-20 06:23:00,
2013-05-20 07:33:00,58.3,55.1,29.91,WSW,248,0.0,0.0,89,0.00,,,0.00,pywws,2013-05-20 06:33:00,
2013-05-20 07:43:00,58.6,55.4,29.91,South,180,0.0,0.0,89,0.00,,,0.00,pywws,2013-05-20 06:43:00,
2013-05-20 07:51:00,59.0,55.8,29.91,South,180,0.0,0.0,89,0.00,,,0.00,pywws,2013-05-20 06:51:00,
2013-05-20 08:03:00,59.4,56.4,29.91,South,180,0.0,1.6,90,0.00,,,0.00,pywws,2013-05-20 07:03:00,
2013-05-20 08:11:00,59.7,56.8,29.91,WSW,248,0.0,1.6,90,0.00,,,0.00,pywws,2013-05-20 07:11:00,
2013-05-20 08:23:00,60.3,57.3,29.91,West,270,0.0,2.2,90,0.00,,,0.00,pywws,2013-05-20 07:23:00,
2013-05-20 08:33:00,60.6,57.7,29.91,NW,315,2.2,5.4,90,0.00,,,0.00,pywws,2013-05-20 07:33:00,
2013-05-20 08:43:00,61.3,58.7,29.91,WNW,292,0.0,0.0,91,0.00,,,0.00,pywws,2013-05-20 07:43:00,
2013-05-20 08:53:00,62.2,59.6,29.92,West,270,2.2,4.5,91,0.00,,,0.00,pywws,2013-05-20 07:53:00,
2013-05-20 09:03:00,62.8,60.1,29.92,SE,135,2.2,3.8,91,0.00,,,0.00,pywws,2013-05-20 08:03:00,
2013-05-20 09:13:00,63.0,60.3,29.92,West,270,1.6,3.8,91,0.00,,,0.00,pywws,2013-05-20 08:13:00,
2013-05-20 09:23:00,63.3,60.3,29.91,WSW,248,3.1,4.5,90,0.00,,,0.00,pywws,2013-05-20 08:23:00,
2013-05-20 09:33:00,63.9,60.9,29.92,NW,315,3.1,4.5,90,0.00,,,0.00,pywws,2013-05-20 08:33:00,
2013-05-20 09:43:00,64.4,61.4,29.92,WSW,248,0.7,2.2,90,0.00,,,0.00,pywws,2013-05-20 08:43:00,
2013-05-20 09:53:00,65.1,61.8,29.93,WSW,248,1.6,3.1,89,0.00,,,0.00,pywws,2013-05-20 08:53:00,
2013-05-20 10:03:00,65.3,61.6,29.92,WSW,248,3.1,5.4,88,0.00,,,0.00,pywws,2013-05-20 09:03:00,
2013-05-20 10:11:00,65.5,61.5,29.93,West,270,2.2,5.4,87,0.00,,,0.00,pywws,2013-05-20 09:11:00,
2013-05-20 10:23:00,65.7,61.0,29.92,North,0,0.0,0.0,85,0.00,,,0.00,pywws,2013-05-20 09:23:00,
2013-05-20 10:33:00,66.0,61.0,29.92,NE,45,0.7,1.6,84,0.00,,,0.00,pywws,2013-05-20 09:33:00,
2013-05-20 10:43:00,66.9,61.6,29.92,SE,135,0.0,0.0,83,0.00,,,0.00,pywws,2013-05-20 09:43:00,
2013-05-20 10:51:00,68.0,62.6,29.92,West,270,0.7,2.2,83,0.00,,,0.00,pywws,2013-05-20 09:51:00,
2013-05-20 11:03:00,68.9,62.5,29.92,South,180,3.8,5.4,80,0.00,,,0.00,pywws,2013-05-20 10:03:00,
2013-05-20 11:13:00,69.1,61.6,29.91,South,180,2.2,3.8,77,0.00,,,0.00,pywws,2013-05-20 10:13:00,
2013-05-20 11:23:00,69.4,61.5,29.91,SE,135,0.7,3.8,76,0.00,,,0.00,pywws,2013-05-20 10:23:00,
2013-05-20 11:33:00,69.6,61.3,29.91,SE,135,3.1,4.5,75,0.00,,,0.00,pywws,2013-05-20 10:33:00,
2013-05-20 11:43:00,69.8,61.1,29.91,SE,135,2.2,5.4,74,0.00,,,0.00,pywws,2013-05-20 10:43:00,
2013-05-20 11:53:00,69.6,60.6,29.91,South,180,3.1,5.4,73,0.00,,,0.00,pywws,2013-05-20 10:53:00,
2013-05-20 12:03:00,69.4,60.0,29.92,SE,135,4.5,6.9,72,0.00,,,0.00,pywws,2013-05-20 11:03:00,
2013-05-20 12:13:00,69.1,59.3,29.91,SSE,158,4.5,6.9,71,0.00,,,0.00,pywws,2013-05-20 11:13:00,
2013-05-20 12:23:00,68.7,59.3,29.91,South,180,3.1,5.4,72,0.00,,,0.00,pywws,2013-05-20 11:23:00,
2013-05-20 12:33:00,68.7,59.3,29.91,SE,135,4.5,7.6,72,0.00,,,0.00,pywws,2013-05-20 11:33:00,
2013-05-20 12:43:00,68.9,59.5,29.91,East,90,3.1,5.4,72,0.00,,,0.00,pywws,2013-05-20 11:43:00,
2013-05-20 12:53:00,69.4,60.4,29.91,WSW,248,4.5,6.9,73,0.00,,,0.00,pywws,2013-05-20 11:53:00,
2013-05-20 13:03:00,69.6,60.2,29.91,SE,135,5.4,7.6,72,0.00,,,0.00,pywws,2013-05-20 12:03:00,
2013-05-20 13:13:00,70.0,60.1,29.91,SE,135,4.5,6.9,71,0.00,,,0.00,pywws,2013-05-20 12:13:00,
2013-05-20 13:23:00,70.3,60.5,29.90,South,180,5.4,10.7,71,0.00,,,0.00,pywws,2013-05-20 12:23:00,
2013-05-20 13:33:00,70.5,60.3,29.91,South,180,5.4,9.2,70,0.00,,,0.00,pywws,2013-05-20 12:33:00,
2013-05-20 13:43:00,70.7,60.4,29.90,East,90,3.8,7.6,70,0.00,,,0.00,pywws,2013-05-20 12:43:00,
2013-05-20 13:53:00,70.7,60.0,29.90,WSW,248,3.8,6.0,69,0.00,,,0.00,pywws,2013-05-20 12:53:00,
2013-05-20 14:03:00,70.7,59.6,29.90,SE,135,6.0,9.8,68,0.00,,,0.00,pywws,2013-05-20 13:03:00,
2013-05-20 14:13:00,70.9,60.2,29.90,SE,135,5.4,8.3,69,0.00,,,0.00,pywws,2013-05-20 13:13:00,
2013-05-20 14:23:00,70.7,59.2,29.91,East,90,3.8,7.6,67,0.00,,,0.00,pywws,2013-05-20 13:23:00,
2013-05-20 14:33:00,70.0,58.1,29.90,SE,135,4.5,6.0,66,0.00,,,0.00,pywws,2013-05-20 13:33:00,
2013-05-20 14:43:00,69.4,58.0,29.90,SE,135,2.2,4.5,67,0.00,,,0.00,pywws,2013-05-20 13:43:00,
2013-05-20 14:53:00,69.6,59.0,29.90,East,90,3.8,8.3,69,0.00,,,0.00,pywws,2013-05-20 13:53:00,
2013-05-20 15:03:00,70.5,59.4,29.89,SE,135,3.8,5.4,68,0.00,,,0.00,pywws,2013-05-20 14:03:00,
2013-05-20 15:13:00,71.1,60.0,29.89,East,90,3.8,6.9,68,0.00,,,0.00,pywws,2013-05-20 14:13:00,
2013-05-20 15:23:00,71.4,59.5,29.90,East,90,3.8,7.6,66,0.00,,,0.00,pywws,2013-05-20 14:23:00,
2013-05-20 15:33:00,71.1,59.1,29.90,East,90,4.5,7.6,66,0.00,,,0.00,pywws,2013-05-20 14:33:00,
2013-05-20 15:43:00,70.9,58.9,29.89,East,90,3.8,6.0,66,0.00,,,0.00,pywws,2013-05-20 14:43:00,
2013-05-20 15:53:00,70.5,58.6,29.90,NE,45,4.5,7.6,66,0.00,,,0.00,pywws,2013-05-20 14:53:00,
2013-05-20 16:03:00,70.3,58.9,29.89,NE,45,3.8,5.4,67,0.00,,,0.00,pywws,2013-05-20 15:03:00,
2013-05-20 16:13:00,70.2,58.7,29.90,East,90,3.8,6.9,67,0.00,,,0.00,pywws,2013-05-20 15:13:00,
2013-05-20 16:23:00,69.4,58.0,29.89,East,90,3.1,6.0,67,0.00,,,0.00,pywws,2013-05-20 15:23:00,
2013-05-20 16:33:00,68.7,57.7,29.90,NE,45,3.1,4.5,68,0.00,,,0.00,pywws,2013-05-20 15:33:00,
2013-05-20 16:43:00,68.2,57.6,29.89,East,90,4.5,7.6,69,0.00,,,0.00,pywws,2013-05-20 15:43:00,
2013-05-20 16:53:00,67.6,57.5,29.89,North,0,2.2,3.8,70,0.00,,,0.00,pywws,2013-05-20 15:53:00,
2013-05-20 17:03:00,67.8,58.1,29.89,ENE,68,2.2,4.5,71,0.00,,,0.00,pywws,2013-05-20 16:03:00,
2013-05-20 17:13:00,68.0,58.2,29.90,East,90,0.7,2.2,71,0.00,,,0.00,pywws,2013-05-20 16:13:00,
2013-05-20 17:23:00,68.5,59.1,29.89,SE,135,3.1,5.4,72,0.00,,,0.00,pywws,2013-05-20 16:23:00,
2013-05-20 17:33:00,68.9,59.5,29.89,East,90,3.1,5.4,72,0.00,,,0.00,pywws,2013-05-20 16:33:00,
2013-05-20 17:43:00,69.1,59.7,29.89,East,90,3.8,6.9,72,0.00,,,0.00,pywws,2013-05-20 16:43:00,
2013-05-20 17:53:00,68.9,59.5,29.89,East,90,4.5,7.6,72,0.00,,,0.00,pywws,2013-05-20 16:53:00,
2013-05-20 18:03:00,69.3,60.2,29.89,SE,135,3.8,6.9,73,0.00,,,0.00,pywws,2013-05-20 17:03:00,
2013-05-20 18:13:00,69.3,60.2,29.89,East,90,3.1,5.4,73,0.00,,,0.00,pywws,2013-05-20 17:13:00,
2013-05-20 18:23:00,69.1,59.7,29.90,East,90,3.1,5.4,72,0.00,,,0.00,pywws,2013-05-20 17:23:00,
2013-05-20 18:33:00,68.5,59.1,29.90,East,90,2.2,3.8,72,0.00,,,0.00,pywws,2013-05-20 17:33:00,
2013-05-20 18:43:00,67.6,58.3,29.90,East,90,4.5,7.6,72,0.00,,,0.00,pywws,2013-05-20 17:43:00,
2013-05-20 18:53:00,66.6,57.2,29.91,East,90,8.3,12.1,72,0.00,,,0.00,pywws,2013-05-20 17:53:00,
2013-05-20 19:03:00,64.4,54.8,29.91,East,90,4.5,8.3,71,0.00,,,0.00,pywws,2013-05-20 18:03:00,
2013-05-20 19:13:00,63.7,54.5,29.92,East,90,5.4,9.2,72,0.00,,,0.00,pywws,2013-05-20 18:13:00,
2013-05-20 19:23:00,61.5,52.8,29.93,East,90,7.6,10.7,73,0.00,,,0.00,pywws,2013-05-20 18:23:00,
2013-05-20 19:33:00,60.4,52.1,29.93,SE,135,3.8,6.9,74,0.00,,,0.00,pywws,2013-05-20 18:33:00,
2013-05-20 19:43:00,59.5,51.6,29.93,East,90,3.1,5.4,75,0.00,,,0.00,pywws,2013-05-20 18:43:00,
2013-05-20 19:53:00,59.0,51.4,29.93,East,90,5.4,9.8,76,0.00,,,0.00,pywws,2013-05-20 18:53:00,
2013-05-20 20:03:00,58.5,51.3,29.94,NE,45,4.5,7.6,77,0.00,,,0.00,pywws,2013-05-20 19:03:00,
2013-05-20 20:13:00,58.3,51.4,29.94,NE,45,4.5,8.3,78,0.00,,,0.00,pywws,2013-05-20 19:13:00,
2013-05-20 20:23:00,57.7,51.3,29.95,NE,45,5.4,9.8,79,0.00,,,0.00,pywws,2013-05-20 19:23:00,
2013-05-20 20:33:00,57.6,51.1,29.95,East,90,3.8,7.6,79,0.00,,,0.00,pywws,2013-05-20 19:33:00,
2013-05-20 20:43:00,57.2,51.1,29.96,SE,135,2.2,4.5,80,0.00,,,0.00,pywws,2013-05-20 19:43:00,
2013-05-20 20:53:00,57.0,50.9,29.96,East,90,2.2,4.5,80,0.02,,,0.02,pywws,2013-05-20 19:53:00,
2013-05-20 21:03:00,56.8,50.7,29.97,SE,135,0.0,0.0,80,0.05,,,0.05,pywws,2013-05-20 20:03:00,
2013-05-20 21:13:00,56.5,50.4,29.97,East,90,2.2,4.5,80,0.05,,,0.05,pywws,2013-05-20 20:13:00,
2013-05-20 21:23:00,55.9,50.2,29.98,East,90,3.8,6.0,81,0.05,,,0.05,pywws,2013-05-20 20:23:00,
2013-05-20 21:33:00,55.2,49.5,29.98,East,90,1.6,3.1,81,0.05,,,0.05,pywws,2013-05-20 20:33:00,
2013-05-20 21:43:00,54.9,49.1,29.98,SE,135,1.6,3.1,81,0.05,,,0.05,pywws,2013-05-20 20:43:00,
2013-05-20 21:53:00,54.3,48.6,29.99,East,90,0.7,1.6,81,0.02,,,0.05,pywws,2013-05-20 20:53:00,
2013-05-20 22:03:00,54.1,48.8,29.99,East,90,0.0,1.6,82,0.00,,,0.05,pywws,2013-05-20 21:03:00,
2013-05-20 22:13:00,54.1,48.8,29.99,East,90,0.7,2.2,82,0.00,,,0.05,pywws,2013-05-20 21:13:00,
2013-05-20 22:23:00,53.8,48.4,29.99,SE,135,0.0,0.0,82,0.00,,,0.05,pywws,2013-05-20 21:23:00,
2013-05-20 22:33:00,53.6,48.6,30.00,East,90,0.0,0.0,83,0.00,,,0.05,pywws,2013-05-20 21:33:00,
2013-05-20 22:43:00,53.6,48.6,30.00,WSW,248,0.0,0.0,83,0.00,,,0.05,pywws,2013-05-20 21:43:00,
2013-05-20 22:54:00,53.4,48.4,30.00,East,90,0.0,0.0,83,0.00,,,0.05,pywws,2013-05-20 21:54:00,
2013-05-20 23:03:00,53.4,48.4,30.00,WSW,248,0.0,0.0,83,0.00,,,0.05,pywws,2013-05-20 22:03:00,
2013-05-20 23:14:00,53.4,48.4,30.00,WSW,248,1.6,3.1,83,0.00,,,0.05,pywws,2013-05-20 22:14:00,
2013-05-20 23:23:00,53.4,48.7,30.00,SE,135,0.0,0.0,84,0.00,,,0.05,pywws,2013-05-20 22:23:00,
2013-05-20 23:33:00,53.2,48.5,30.00,SE,135,0.0,0.0,84,0.00,,,0.05,pywws,2013-05-20 22:33:00,
2013-05-20 23:43:00,53.2,48.5,30.01,West,270,0.0,0.0,84,0.00,,,0.05,pywws,2013-05-20 22:43:00,
2013-05-20 23:53:00,53.2,48.5,30.01,West,270,0.0,0.0,84,0.00,,,0.05,pywws,2013-05-20 22:53:00,